Time;durP1;ratioP1;P1;durP2;ratioP2;P2;SDS_P1;SDS_P2;PMS_P1;PMS_P2;Temp;Humidity;BMP_temperature;BMP_pressure;BME280_temperature;BME280_humidity;BME280_pressure;Samples;Min_cycle;Max_cycle;Signal;HPM_P1;HPM_P2
2023/09/15 00:00:25;;;;;;;3.88;2.80;;;;;;;25.94;52.89;100526.97;5091889;28;20052;-69
2023/09/15 00:02:56;;;;;;;5.30;2.60;;;;;;;25.94;52.66;100530.56;5091590;28;20064;-68
2023/09/15 00:05:28;;;;;;;4.90;3.00;;;;;;;25.94;52.89;100535.16;5091917;28;20052;-68
2023/09/15 00:07:57;;;;;;;5.03;3.20;;;;;;;25.93;52.56;100528.84;5091643;28;20583;-69
2023/09/15 00:10:27;;;;;;;4.07;2.78;;;;;;;25.92;52.49;100529.91;5098468;28;20052;-69
2023/09/15 00:12:55;;;;;;;5.13;3.15;;;;;;;25.94;52.83;100529.72;5112152;28;20043;-69
2023/09/15 00:15:24;;;;;;;4.55;3.08;;;;;;;25.92;52.74;100531.78;5111930;28;20051;-69
2023/09/15 00:17:54;;;;;;;5.30;3.45;;;;;;;25.92;52.95;100534.50;5111814;28;20550;-69
2023/09/15 00:20:25;;;;;;;4.53;3.05;;;;;;;25.90;52.84;100529.25;5112086;28;20050;-69
2023/09/15 00:22:56;;;;;;;4.28;2.85;;;;;;;25.90;52.96;100536.59;5112138;28;20047;-68
2023/09/15 00:25:26;;;;;;;4.18;3.05;;;;;;;25.90;53.04;100539.31;5111797;28;20135;-70
2023/09/15 00:27:58;;;;;;;4.25;3.03;;;;;;;25.88;52.70;100539.50;5111773;28;20048;-68
2023/09/15 00:30:28;;;;;;;4.80;3.00;;;;;;;25.90;53.09;100544.78;5111851;28;20062;-69
2023/09/15 00:32:56;;;;;;;4.78;2.78;;;;;;;25.88;53.15;100541.41;5111899;28;20047;-69
2023/09/15 00:35:28;;;;;;;5.30;3.10;;;;;;;25.89;53.07;100545.81;5111767;28;20052;-68
2023/09/15 00:37:56;;;;;;;4.97;3.10;;;;;;;25.88;52.78;100544.97;5114370;28;20526;-69
2023/09/15 00:40:25;;;;;;;4.80;3.17;;;;;;;25.86;52.87;100543.44;5115487;28;20047;-69
2023/09/15 00:42:53;;;;;;;4.55;3.10;;;;;;;25.86;52.99;100549.75;5115714;28;20062;-70
2023/09/15 00:45:22;;;;;;;4.38;3.03;;;;;;;25.86;53.19;100557.94;5115767;28;20050;-68
2023/09/15 00:47:52;;;;;;;5.07;3.10;;;;;;;25.85;53.13;100555.41;5115519;28;20484;-70
2023/09/15 00:50:23;;;;;;;3.90;2.95;;;;;;;25.82;52.62;100553.91;5115457;28;20049;-69
2023/09/15 00:52:55;;;;;;;4.03;3.00;;;;;;;25.84;52.71;100559.19;5115156;28;20058;-69
2023/09/15 00:55:26;;;;;;;4.25;3.10;;;;;;;25.84;53.03;100562.75;5115348;28;20054;-69
2023/09/15 00:57:56;;;;;;;4.93;2.97;;;;;;;25.84;53.13;100553.72;5115279;28;20056;-69
2023/09/15 01:00:26;;;;;;;4.15;3.00;;;;;;;25.83;52.70;100560.22;5115362;28;20078;-69
2023/09/15 01:02:54;;;;;;;4.47;3.10;;;;;;;25.83;52.54;100557.47;5115041;28;20044;-69
2023/09/15 01:05:24;;;;;;;4.35;2.97;;;;;;;25.81;52.82;100554.09;5115264;28;20048;-69
2023/09/15 01:07:55;;;;;;;4.32;3.00;;;;;;;25.82;52.97;100558.50;5115164;28;20138;-69
2023/09/15 01:10:25;;;;;;;4.20;2.88;;;;;;;25.80;52.95;100561.44;5114840;28;20083;-69
2023/09/15 01:12:55;;;;;;;4.50;3.15;;;;;;;25.80;52.99;100553.25;5114875;28;20130;-69
2023/09/15 01:15:30;;;;;;;4.65;3.08;;;;;;;25.79;52.84;100564.34;5114911;28;20126;-69
2023/09/15 01:18:10;;;;;;;3.88;3.05;;;;;;;25.79;52.87;100562.47;5114718;28;20043;-69
2023/09/15 01:21:16;;;;;;;3.97;2.75;;;;;;;25.77;53.06;100566.41;5115002;28;20056;-69
2023/09/15 01:24:04;;;;;;;4.10;2.78;;;;;;;25.77;52.67;100571.88;5114964;28;20044;-69
2023/09/15 01:26:53;;;;;;;4.30;2.97;;;;;;;25.75;52.69;100560.28;5114550;28;20047;-69
2023/09/15 01:29:44;;;;;;;4.65;2.88;;;;;;;25.74;52.95;100564.88;5114688;28;20079;-69
2023/09/15 01:32:15;;;;;;;3.95;2.85;;;;;;;25.74;52.54;100564.88;5114399;28;20047;-69
2023/09/15 01:34:48;;;;;;;5.22;2.97;;;;;;;25.72;52.90;100561.50;5114690;28;20108;-69
2023/09/15 01:37:19;;;;;;;3.90;2.70;;;;;;;25.73;52.36;100567.81;5114709;28;20414;-69
2023/09/15 01:39:50;;;;;;;4.60;2.92;;;;;;;25.73;52.63;100570.53;5114548;28;20044;-68
2023/09/15 01:42:18;;;;;;;3.80;2.92;;;;;;;25.73;52.44;100570.53;5114566;28;20108;-68
2023/09/15 01:44:48;;;;;;;4.20;2.95;;;;;;;25.72;52.89;100568.84;5114282;28;20461;-67
2023/09/15 01:47:22;;;;;;;4.25;2.90;;;;;;;25.71;52.89;100564.41;5114148;28;20080;-68
2023/09/15 01:49:52;;;;;;;3.80;2.85;;;;;;;25.67;52.71;100567.50;5113225;28;20056;-69
2023/09/15 01:52:21;;;;;;;3.85;2.90;;;;;;;25.69;52.71;100575.50;5114467;28;20050;-68
2023/09/15 01:54:52;;;;;;;4.57;2.92;;;;;;;25.68;52.74;100574.66;5114253;28;20051;-68
2023/09/15 01:57:21;;;;;;;4.45;3.00;;;;;;;25.66;52.69;100575.84;5114445;28;20043;-68
2023/09/15 01:59:51;;;;;;;3.97;2.78;;;;;;;25.64;52.61;100576.03;5113899;28;20549;-68
2023/09/15 02:02:20;;;;;;;5.03;2.70;;;;;;;25.64;52.72;100578.75;5114071;28;20488;-68
2023/09/15 02:04:48;;;;;;;4.28;2.60;;;;;;;25.64;52.78;100581.50;5114156;28;20135;-68
2023/09/15 02:07:17;;;;;;;4.28;2.60;;;;;;;25.65;52.79;100579.59;5114001;28;20040;-68
2023/09/15 02:09:45;;;;;;;4.25;2.78;;;;;;;25.63;52.87;100576.22;5113924;28;20080;-68
2023/09/15 02:12:13;;;;;;;4.00;2.78;;;;;;;25.63;53.09;100568.03;5113725;28;20118;-69
2023/09/15 02:14:42;;;;;;;4.43;2.90;;;;;;;25.61;52.97;100570.94;5113949;28;20048;-69
2023/09/15 02:17:15;;;;;;;4.15;2.67;;;;;;;25.61;52.56;100572.81;5113817;28;20458;-69
2023/09/15 02:19:44;;;;;;;4.25;2.90;;;;;;;25.61;52.77;100578.28;5113708;28;20104;-69
2023/09/15 02:22:13;;;;;;;4.07;2.85;;;;;;;25.60;52.72;100580.16;5113579;28;20040;-68
2023/09/15 02:24:41;;;;;;;4.38;2.90;;;;;;;25.59;52.71;100586.66;5113683;28;20050;-68
2023/09/15 02:27:10;;;;;;;4.57;2.83;;;;;;;25.59;52.64;100573.00;5113366;28;20047;-69
2023/09/15 02:29:38;;;;;;;3.60;2.70;;;;;;;25.58;52.84;100582.25;5113598;28;20079;-68
2023/09/15 02:32:07;;;;;;;4.20;2.90;;;;;;;25.57;52.79;100582.41;5113614;28;20122;-68
2023/09/15 02:34:36;;;;;;;3.78;2.72;;;;;;;25.57;53.00;100580.50;5113279;28;20048;-68
2023/09/15 02:37:05;;;;;;;3.85;2.70;;;;;;;25.55;52.75;100590.78;5113242;28;20052;-69
2023/09/15 02:39:35;;;;;;;4.32;2.90;;;;;;;25.56;52.86;100581.56;5113022;28;20043;-69
2023/09/15 02:42:03;;;;;;;4.72;2.88;;;;;;;25.55;53.08;100579.84;5113415;28;20047;-69
2023/09/15 02:44:34;;;;;;;5.25;2.90;;;;;;;25.54;52.68;100583.63;5113245;28;20047;-69
2023/09/15 02:47:02;;;;;;;3.72;2.78;;;;;;;25.54;52.72;100583.63;5113271;28;20039;-69
2023/09/15 02:49:31;;;;;;;3.90;2.72;;;;;;;25.52;53.03;100580.22;5113263;28;20040;-69
2023/09/15 02:52:01;;;;;;;4.65;2.78;;;;;;;25.52;53.03;100579.38;5112937;28;20040;-68
2023/09/15 02:54:29;;;;;;;3.72;2.50;;;;;;;25.51;53.18;100580.41;5112856;28;20553;-68
2023/09/15 02:56:58;;;;;;;5.38;3.03;;;;;;;25.49;52.99;100586.06;5112847;28;20044;-69
2023/09/15 02:59:27;;;;;;;4.05;3.05;;;;;;;25.49;53.07;100583.31;5112630;28;20040;-68
2023/09/15 03:01:55;;;;;;;3.92;2.58;;;;;;;25.49;53.00;100579.75;5112757;28;20039;-68
2023/09/15 03:04:24;;;;;;;3.63;2.90;;;;;;;25.48;53.24;100586.22;5112844;28;20047;-67
2023/09/15 03:06:52;;;;;;;4.53;2.80;;;;;;;25.47;53.13;100582.63;5113170;28;20134;-67
2023/09/15 03:09:22;;;;;;;4.15;2.75;;;;;;;25.47;52.82;100584.50;5112906;28;20047;-68
2023/09/15 03:11:50;;;;;;;4.00;2.67;;;;;;;25.45;53.27;100583.84;5112513;28;20058;-68
2023/09/15 03:14:18;;;;;;;4.97;3.10;;;;;;;25.46;52.83;100591.00;5112748;28;20423;-67
2023/09/15 03:16:48;;;;;;;3.55;2.60;;;;;;;25.45;52.96;100583.84;5112457;28;20476;-68
2023/09/15 03:19:16;;;;;;;4.03;2.80;;;;;;;25.44;53.07;100588.47;5112203;28;20054;-68
2023/09/15 03:21:45;;;;;;;4.10;2.70;;;;;;;25.42;53.23;100590.53;5112507;28;20082;-68
2023/09/15 03:24:14;;;;;;;4.38;2.85;;;;;;;25.42;53.01;100593.25;5112361;28;20069;-68
2023/09/15 03:26:43;;;;;;;4.22;2.90;;;;;;;25.41;53.09;100583.38;5112404;28;20159;-68
2023/09/15 03:29:12;;;;;;;3.75;2.78;;;;;;;25.40;52.70;100578.94;5112305;28;20051;-68
2023/09/15 03:31:41;;;;;;;4.53;3.10;;;;;;;25.39;52.98;100589.03;5112251;28;20048;-67
2023/09/15 03:34:09;;;;;;;4.55;3.03;;;;;;;25.40;52.72;100598.06;5112578;28;20047;-68
2023/09/15 03:36:37;;;;;;;4.38;3.10;;;;;;;25.39;52.83;100597.22;5112259;28;20051;-67
2023/09/15 03:39:06;;;;;;;4.50;2.90;;;;;;;25.37;52.79;100593.78;5112369;28;20055;-69
2023/09/15 03:41:35;;;;;;;4.53;2.92;;;;;;;25.36;53.06;100593.97;5112468;28;20146;-69
2023/09/15 03:44:04;;;;;;;5.75;3.10;;;;;;;25.36;52.80;100596.69;5112319;28;20048;-69
2023/09/15 03:46:33;;;;;;;4.00;3.00;;;;;;;25.36;52.75;100591.25;5112010;28;20044;-69
2023/09/15 03:49:03;;;;;;;5.68;3.08;;;;;;;25.33;52.80;100586.16;5112247;28;20416;-69
2023/09/15 03:51:31;;;;;;;4.82;2.90;;;;;;;25.34;52.74;100596.03;5112272;28;20460;-69
2023/09/15 03:54:00;;;;;;;4.90;2.90;;;;;;;25.31;52.91;100594.53;5111948;28;20055;-69
2023/09/15 03:56:29;;;;;;;4.35;2.95;;;;;;;25.32;53.09;100603.56;5112190;28;20088;-68
2023/09/15 03:58:58;;;;;;;4.15;2.95;;;;;;;25.30;52.63;100598.28;5111869;28;20040;-68
2023/09/15 04:01:28;;;;;;;4.78;3.08;;;;;;;25.29;52.53;100595.75;5111951;28;20044;-67
2023/09/15 04:03:56;;;;;;;4.65;2.85;;;;;;;25.29;53.07;100598.47;5112101;28;20295;-68
2023/09/15 04:06:25;;;;;;;3.95;2.97;;;;;;;25.29;52.62;100598.47;5112181;28;20138;-69
2023/09/15 04:08:53;;;;;;;4.15;3.03;;;;;;;25.27;52.80;100603.25;5111906;28;20053;-67
2023/09/15 04:11:21;;;;;;;6.07;3.17;;;;;;;25.27;52.64;100598.63;5111709;28;20051;-69
2023/09/15 04:13:50;;;;;;;4.55;3.00;;;;;;;25.25;52.78;100606.16;5115899;28;20048;-67
2023/09/15 04:16:18;;;;;;;4.35;3.33;;;;;;;25.25;52.49;100611.63;5116272;28;20047;-69
2023/09/15 04:18:48;;;;;;;3.88;2.88;;;;;;;25.25;52.64;100605.31;5116137;28;20047;-68
2023/09/15 04:21:17;;;;;;;4.20;2.90;;;;;;;25.23;52.70;100607.38;5115860;28;20051;-68
2023/09/15 04:23:45;;;;;;;4.20;2.95;;;;;;;25.23;52.48;100612.84;5115803;28;20067;-68
2023/09/15 04:26:13;;;;;;;4.07;2.97;;;;;;;25.22;52.97;100616.59;5115559;28;20086;-68
2023/09/15 04:28:42;;;;;;;3.72;2.78;;;;;;;25.21;52.70;100615.75;5115950;28;20079;-68
2023/09/15 04:31:10;;;;;;;4.32;3.20;;;;;;;25.21;52.55;100609.44;5115993;28;20055;-68
2023/09/15 04:33:39;;;;;;;4.72;3.47;;;;;;;25.21;52.71;100603.97;5115894;28;20130;-68
2023/09/15 04:36:09;;;;;;;4.95;2.88;;;;;;;25.20;52.48;100602.28;5115467;28;20546;-69
2023/09/15 04:38:37;;;;;;;4.53;3.00;;;;;;;25.20;52.65;100605.84;5115359;28;20048;-68
2023/09/15 04:41:06;;;;;;;4.72;3.20;;;;;;;25.18;52.67;100607.03;5115739;28;20051;-68
2023/09/15 04:43:35;;;;;;;4.93;3.28;;;;;;;25.18;52.60;100607.03;5115561;28;20059;-68
2023/09/15 04:46:04;;;;;;;4.53;3.08;;;;;;;25.16;52.26;100607.22;5115397;28;20044;-69
2023/09/15 04:48:32;;;;;;;4.10;3.00;;;;;;;25.18;52.49;100615.22;5115561;28;20048;-68
2023/09/15 04:51:01;;;;;;;4.45;3.10;;;;;;;25.16;52.66;100606.38;5115307;28;20043;-68
2023/09/15 04:53:31;;;;;;;4.32;3.20;;;;;;;25.16;52.79;100606.38;5115013;28;20096;-69
2023/09/15 04:55:59;;;;;;;4.13;2.90;;;;;;;25.14;52.66;100608.44;5115154;28;20051;-68
2023/09/15 04:58:27;;;;;;;4.70;3.13;;;;;;;25.12;52.90;100597.69;5115227;28;20044;-69
2023/09/15 05:01:00;;;;;;;4.22;3.20;;;;;;;25.14;52.61;100603.81;5114867;28;20051;-68
2023/09/15 05:03:28;;;;;;;3.42;2.90;;;;;;;25.13;52.36;100606.75;5114873;28;20047;-68
2023/09/15 05:05:57;;;;;;;4.20;3.10;;;;;;;25.13;52.50;100612.19;5114611;28;20043;-68
2023/09/15 05:08:25;;;;;;;4.70;3.15;;;;;;;25.13;52.53;100609.47;5115125;28;20039;-68
2023/09/15 05:10:55;;;;;;;4.80;3.38;;;;;;;25.12;52.58;100616.81;5114786;28;20048;-69
2023/09/15 05:13:23;;;;;;;6.38;3.70;;;;;;;25.12;52.55;100616.81;5114536;28;20048;-69
2023/09/15 05:15:52;;;;;;;4.35;3.17;;;;;;;25.11;52.62;100618.69;5114466;28;20051;-68
2023/09/15 05:18:20;;;;;;;5.00;3.45;;;;;;;25.11;52.67;100615.97;5114105;28;20517;-68
2023/09/15 05:20:51;;;;;;;5.72;3.38;;;;;;;25.11;52.75;100617.84;5114043;28;20561;-68
2023/09/15 05:23:19;;;;;;;4.50;3.20;;;;;;;25.10;52.66;100625.19;5113638;28;20074;-68
2023/09/15 05:25:49;;;;;;;6.28;3.75;;;;;;;25.10;53.03;100629.78;5114712;28;20043;-68
2023/09/15 05:28:19;;;;;;;5.18;3.53;;;;;;;25.09;52.63;100628.94;5114336;28;20040;-69
2023/09/15 05:30:47;;;;;;;6.43;3.47;;;;;;;25.10;52.85;100629.78;5114463;28;20050;-67
2023/09/15 05:33:17;;;;;;;5.00;3.40;;;;;;;25.08;52.72;100627.22;5113105;28;20051;-68
2023/09/15 05:35:45;;;;;;;4.57;3.30;;;;;;;25.10;52.61;100635.25;5112510;28;20105;-68
2023/09/15 05:38:14;;;;;;;5.20;3.67;;;;;;;25.08;52.80;100635.41;5113254;28;20396;-68
2023/09/15 05:40:42;;;;;;;4.75;3.47;;;;;;;25.09;52.95;100639.84;5113561;28;20051;-69
2023/09/15 05:43:11;;;;;;;5.43;3.85;;;;;;;25.09;52.83;100636.25;5113543;28;20039;-69
2023/09/15 05:45:41;;;;;;;6.70;4.25;;;;;;;25.08;52.80;100632.66;5110981;28;20044;-68
2023/09/15 05:48:12;;;;;;;6.15;3.88;;;;;;;25.08;52.88;100632.66;5113516;28;20046;-68
2023/09/15 05:50:40;;;;;;;5.75;4.18;;;;;;;25.08;53.01;100640.00;5111162;28;20128;-68
2023/09/15 05:53:09;;;;;;;5.10;3.63;;;;;;;25.09;53.21;100633.50;5113536;28;20130;-69
2023/09/15 05:55:37;;;;;;;5.50;3.88;;;;;;;25.08;53.09;100640.00;5113445;28;20047;-68
2023/09/15 05:58:06;;;;;;;4.65;3.90;;;;;;;25.08;52.86;100635.41;5113871;28;20075;-68
2023/09/15 06:00:37;;;;;;;4.57;3.75;;;;;;;25.08;52.83;100638.13;5114100;28;20052;-68
2023/09/15 06:03:07;;;;;;;5.18;3.83;;;;;;;25.07;52.83;100630.13;5113883;28;20499;-68
2023/09/15 06:05:36;;;;;;;12.18;3.95;;;;;;;25.06;52.82;100628.44;5113939;28;20079;-68
2023/09/15 06:08:06;;;;;;;4.40;3.40;;;;;;;25.08;52.88;100631.81;5113762;28;20114;-68
2023/09/15 06:10:36;;;;;;;7.05;4.43;;;;;;;25.08;53.01;100638.13;5113565;28;20051;-68
2023/09/15 06:13:04;;;;;;;6.53;3.78;;;;;;;25.07;52.75;100641.88;5112647;28;20397;-69
2023/09/15 06:15:34;;;;;;;5.38;3.50;;;;;;;25.07;52.93;100636.44;5113501;28;20465;-66
2023/09/15 06:18:02;;;;;;;5.57;3.55;;;;;;;25.07;52.78;100639.16;5110426;28;20051;-67
2023/09/15 06:20:34;;;;;;;5.95;3.40;;;;;;;25.09;52.92;100638.97;5112917;28;20058;-67
2023/09/15 06:23:05;;;;;;;4.95;3.90;;;;;;;25.09;52.68;100650.78;5113445;28;20051;-66
2023/09/15 06:25:33;;;;;;;4.85;3.40;;;;;;;25.09;52.99;100644.44;5100928;28;20412;-67
2023/09/15 06:28:02;;;;;;;5.30;3.60;;;;;;;25.08;52.74;100642.72;5092845;28;20067;-68
2023/09/15 06:30:33;;;;;;;5.63;3.70;;;;;;;25.09;52.78;100645.31;5092540;28;20048;-68
2023/09/15 06:33:01;;;;;;;7.30;4.22;;;;;;;25.10;52.73;100657.09;5092612;28;20048;-67
2023/09/15 06:35:30;;;;;;;6.40;3.60;;;;;;;25.09;52.73;100656.22;5092234;28;20047;-67
2023/09/15 06:38:02;;;;;;;5.60;3.65;;;;;;;25.10;52.89;100659.81;5092746;28;20040;-67
2023/09/15 06:40:31;;;;;;;5.85;3.88;;;;;;;25.10;52.63;100657.09;5109639;28;20500;-67
2023/09/15 06:42:59;;;;;;;5.82;3.50;;;;;;;25.10;52.65;100657.09;5112733;28;20120;-68
2023/09/15 06:45:27;;;;;;;4.43;3.45;;;;;;;25.09;52.64;100656.22;5112537;28;20047;-67
2023/09/15 06:47:55;;;;;;;5.00;3.42;;;;;;;25.09;52.66;100650.78;5112871;28;20100;-68
2023/09/15 06:50:23;;;;;;;5.05;3.78;;;;;;;25.09;52.83;100650.78;5112683;28;20127;-68
2023/09/15 06:52:52;;;;;;;4.97;3.40;;;;;;;25.10;52.31;100652.47;5099819;28;20126;-68
2023/09/15 06:55:21;;;;;;;5.25;3.45;;;;;;;25.09;52.57;100650.78;5111625;28;20036;-68
2023/09/15 06:57:51;;;;;;;4.90;3.70;;;;;;;25.09;52.91;100650.78;5111946;28;20571;-68
2023/09/15 07:00:20;;;;;;;4.53;3.53;;;;;;;25.09;52.88;100648.03;5111839;28;20480;-68
2023/09/15 07:02:48;;;;;;;6.13;3.90;;;;;;;25.09;52.84;100650.78;5112338;28;20055;-68
2023/09/15 07:05:17;;;;;;;5.18;3.63;;;;;;;25.10;52.95;100648.91;5113414;27;20039;-66
2023/09/15 07:07:45;;;;;;;4.78;3.70;;;;;;;25.09;52.75;100655.34;5109860;28;20063;-68
2023/09/15 07:10:14;;;;;;;5.88;3.67;;;;;;;25.08;53.03;100649.03;5112163;28;20047;-66
2023/09/15 07:12:43;;;;;;;5.50;3.45;;;;;;;25.10;52.95;100649.75;5112547;28;20097;-66
2023/09/15 07:15:13;;;;;;;4.82;3.50;;;;;;;25.10;52.92;100651.63;5112421;28;20055;-67
2023/09/15 07:17:42;;;;;;;5.35;3.63;;;;;;;25.10;52.71;100655.19;5112359;28;20050;-67
2023/09/15 07:20:11;;;;;;;4.43;3.35;;;;;;;25.09;52.88;100656.22;5112623;28;20056;-67
2023/09/15 07:22:40;;;;;;;4.03;3.08;;;;;;;25.10;52.56;100652.47;5112620;28;20043;-68
2023/09/15 07:25:09;;;;;;;5.65;3.42;;;;;;;25.11;52.57;100654.16;5112463;28;20048;-68
2023/09/15 07:27:37;;;;;;;5.47;3.53;;;;;;;25.10;52.69;100654.34;5112720;28;20043;-67
2023/09/15 07:30:10;;;;;;;4.43;3.20;;;;;;;25.10;52.45;100659.81;5112165;28;20047;-68
2023/09/15 07:32:39;;;;;;;4.70;3.50;;;;;;;25.11;52.30;100654.16;5112660;28;20052;-68
2023/09/15 07:35:10;;;;;;;4.45;3.33;;;;;;;25.10;52.76;100657.09;5112369;28;20052;-67
2023/09/15 07:37:39;;;;;;;4.78;3.45;;;;;;;25.11;52.54;100658.78;5112410;28;20177;-67
2023/09/15 07:40:08;;;;;;;4.50;3.20;;;;;;;25.12;52.37;100665.94;5112254;28;20048;-68
2023/09/15 07:42:37;;;;;;;4.68;3.20;;;;;;;25.11;52.85;100665.09;5111989;28;20047;-68
2023/09/15 07:45:08;;;;;;;4.60;3.20;;;;;;;25.13;53.00;100670.38;5112123;28;20416;-68
2023/09/15 07:47:36;;;;;;;4.65;3.10;;;;;;;25.13;52.78;100662.19;5112021;28;20071;-68
2023/09/15 07:50:06;;;;;;;5.20;3.25;;;;;;;25.13;52.70;100664.06;5112052;28;20044;-68
2023/09/15 07:52:35;;;;;;;4.75;3.20;;;;;;;25.11;52.65;100662.34;5111882;28;20549;-68
2023/09/15 07:55:04;;;;;;;4.97;3.20;;;;;;;25.15;52.76;100675.63;5111994;28;20044;-68
2023/09/15 07:57:34;;;;;;;4.25;3.17;;;;;;;25.14;52.47;100663.03;5111670;28;20087;-68
2023/09/15 08:00:02;;;;;;;4.70;3.33;;;;;;;25.14;52.65;100669.34;5112166;28;20135;-68
2023/09/15 08:02:36;;;;;;;4.97;3.30;;;;;;;25.14;52.69;100660.28;5111973;28;20044;-68
2023/09/15 08:05:05;;;;;;;5.07;3.25;;;;;;;25.14;52.66;100660.28;5111863;28;20045;-68
2023/09/15 08:07:33;;;;;;;4.80;3.17;;;;;;;25.16;52.60;100658.22;5111825;28;20054;-68
2023/09/15 08:10:03;;;;;;;4.72;3.28;;;;;;;25.15;52.52;100660.13;5093594;28;20044;-68
2023/09/15 08:12:32;;;;;;;4.38;2.85;;;;;;;25.16;52.85;100655.50;5111883;28;20059;-68
2023/09/15 08:15:00;;;;;;;4.60;3.22;;;;;;;25.16;52.42;100650.03;5111814;28;20048;-68
2023/09/15 08:17:28;;;;;;;3.92;3.05;;;;;;;25.17;52.98;100658.06;5111743;28;20047;-68
2023/09/15 08:20:04;;;;;;;4.40;3.00;;;;;;;25.18;52.63;100656.16;5112033;28;20132;-67
2023/09/15 08:22:34;;;;;;;4.43;3.03;;;;;;;25.18;52.35;100650.72;5111581;28;20048;-67
2023/09/15 08:25:03;;;;;;;5.00;3.30;;;;;;;25.17;52.32;100641.69;5111714;28;20047;-67
2023/09/15 08:27:32;;;;;;;4.20;3.00;;;;;;;25.19;52.52;100650.56;5111719;28;20083;-67
2023/09/15 08:30:00;;;;;;;5.13;2.97;;;;;;;25.19;52.38;100652.41;5111826;28;20052;-68
2023/09/15 08:32:28;;;;;;;4.28;2.92;;;;;;;25.20;52.56;100646.81;5111663;28;20067;-67
2023/09/15 08:34:57;;;;;;;4.55;2.70;;;;;;;25.21;52.28;100653.09;5111596;28;20070;-67
2023/09/15 08:37:27;;;;;;;5.40;3.20;;;;;;;25.21;52.62;100655.84;5111719;28;20134;-68
2023/09/15 08:39:55;;;;;;;4.03;2.88;;;;;;;25.21;52.65;100648.50;5111642;28;20103;-67
2023/09/15 08:42:27;;;;;;;4.82;2.70;;;;;;;25.22;52.49;100643.88;5111603;28;20054;-67
2023/09/15 08:44:57;;;;;;;4.10;2.80;;;;;;;25.23;52.32;100642.84;5111533;28;20122;-67
2023/09/15 08:47:27;;;;;;;4.15;2.85;;;;;;;25.23;52.40;100646.44;5111459;28;20047;-68
2023/09/15 08:50:01;;;;;;;4.20;2.97;;;;;;;25.23;52.33;100637.41;5111626;28;20389;-67
2023/09/15 08:52:35;;;;;;;5.18;2.92;;;;;;;25.25;52.45;100640.78;5111516;28;20409;-67
2023/09/15 08:55:04;;;;;;;4.22;3.05;;;;;;;25.25;52.55;100643.53;5111443;28;20050;-67
2023/09/15 08:57:35;;;;;;;5.53;2.90;;;;;;;25.26;52.68;100640.63;5111749;28;20055;-67
2023/09/15 09:00:07;;;;;;;5.30;3.30;;;;;;;25.28;52.63;100646.72;5115183;28;20043;-67
2023/09/15 09:02:36;;;;;;;3.42;2.47;;;;;;;25.29;52.42;100647.63;5115138;28;20485;-67
2023/09/15 09:05:05;;;;;;;4.55;3.00;;;;;;;25.31;52.42;100642.81;5115212;28;20059;-67
2023/09/15 09:07:35;;;;;;;4.50;2.60;;;;;;;25.28;52.93;100641.28;5114932;28;20104;-67
2023/09/15 09:10:05;;;;;;;3.97;2.80;;;;;;;25.31;52.63;100637.38;5114809;28;20078;-67
2023/09/15 09:12:33;;;;;;;4.03;2.42;;;;;;;25.33;52.45;100640.75;5114942;28;20043;-67
2023/09/15 09:15:01;;;;;;;4.85;3.00;;;;;;;25.36;52.21;100646.69;5114973;28;20055;-68
2023/09/15 09:17:32;;;;;;;5.50;3.10;;;;;;;25.35;52.39;100644.16;5114906;28;20062;-68
2023/09/15 09:20:00;;;;;;;4.25;2.90;;;;;;;25.35;52.60;100644.16;5114640;28;20047;-67
2023/09/15 09:22:28;;;;;;;3.47;2.58;;;;;;;25.39;52.29;100642.78;5114756;28;20043;-68
2023/09/15 09:25:00;;;;;;;4.38;2.72;;;;;;;25.41;52.75;100638.00;5114826;28;20046;-68
2023/09/15 09:27:32;;;;;;;4.78;2.55;;;;;;;25.43;52.20;100646.84;5114786;28;20122;-68
2023/09/15 09:30:02;;;;;;;4.22;2.53;;;;;;;25.44;52.76;100648.53;5114799;28;20085;-68
2023/09/15 09:32:30;;;;;;;4.38;2.90;;;;;;;25.46;52.54;100649.22;5114664;28;20052;-67
2023/09/15 09:34:58;;;;;;;4.18;2.85;;;;;;;25.48;52.67;100644.44;5114763;28;20043;-68
2023/09/15 09:37:27;;;;;;;4.43;2.63;;;;;;;25.49;52.69;100646.13;5114519;28;20059;-67
2023/09/15 09:39:55;;;;;;;4.43;2.80;;;;;;;25.50;52.54;100647.84;5114362;28;20047;-68
2023/09/15 09:42:28;;;;;;;4.35;3.05;;;;;;;25.52;52.37;100640.31;5114433;28;20105;-68
2023/09/15 09:44:57;;;;;;;3.78;2.50;;;;;;;25.54;52.55;100640.13;5114289;28;20051;-68
2023/09/15 09:47:26;;;;;;;4.82;2.90;;;;;;;25.56;52.46;100646.25;5114722;28;20052;-69
2023/09/15 09:49:54;;;;;;;3.78;2.67;;;;;;;25.57;52.39;100646.06;5114415;28;20039;-68
2023/09/15 09:52:23;;;;;;;3.90;2.75;;;;;;;25.59;52.73;100641.28;5114125;28;20100;-68
2023/09/15 09:54:51;;;;;;;3.92;2.50;;;;;;;25.59;52.83;100641.28;5114019;28;20042;-68
2023/09/15 09:57:20;;;;;;;4.65;2.85;;;;;;;25.63;52.48;100647.25;5113993;28;20055;-68
2023/09/15 09:59:50;;;;;;;4.50;2.67;;;;;;;25.64;52.53;100644.31;5113872;28;20481;-69
2023/09/15 10:02:18;;;;;;;4.38;2.75;;;;;;;25.68;52.42;100639.38;5113951;28;20067;-68
2023/09/15 10:04:47;;;;;;;4.57;2.90;;;;;;;25.72;52.64;100642.59;5113744;28;20075;-68
2023/09/15 10:07:15;;;;;;;3.92;2.70;;;;;;;25.73;52.46;100639.69;5114024;28;20048;-68
2023/09/15 10:09:45;;;;;;;3.90;2.60;;;;;;;25.75;52.74;100637.63;5112638;28;20053;-68
2023/09/15 10:12:14;;;;;;;4.30;2.83;;;;;;;25.75;52.25;100634.88;5113475;28;20047;-69
2023/09/15 10:14:43;;;;;;;3.78;2.60;;;;;;;25.81;52.45;100644.25;5113660;28;20043;-68
2023/09/15 10:17:13;;;;;;;4.40;2.78;;;;;;;25.84;52.49;100641.16;5113363;28;20047;-69
2023/09/15 10:19:43;;;;;;;3.58;2.60;;;;;;;25.85;52.68;100645.56;5113140;28;20047;-70
2023/09/15 10:22:12;;;;;;;4.57;2.97;;;;;;;25.86;52.55;100642.66;5113562;28;20097;-70
2023/09/15 10:24:44;;;;;;;3.70;2.50;;;;;;;25.87;52.86;100635.34;5113627;28;20047;-69
2023/09/15 10:27:12;;;;;;;3.90;2.78;;;;;;;25.89;52.78;100636.00;5113489;28;20104;-69
2023/09/15 10:29:44;;;;;;;3.88;2.50;;;;;;;25.90;52.73;100634.97;5113598;28;20484;-69
2023/09/15 10:32:18;;;;;;;3.58;2.55;;;;;;;25.91;52.54;100631.19;5113501;28;20131;-69
2023/09/15 10:34:48;;;;;;;3.50;2.38;;;;;;;25.96;52.73;100626.00;5113415;28;20054;-69
2023/09/15 10:37:16;;;;;;;3.65;2.72;;;;;;;26.00;52.38;100627.38;5113297;28;20071;-69
2023/09/15 10:39:44;;;;;;;4.07;2.70;;;;;;;26.04;52.15;100625.94;5112951;28;20150;-69
2023/09/15 10:42:14;;;;;;;3.55;2.60;;;;;;;26.06;52.40;100631.25;5113193;28;20051;-69
2023/09/15 10:44:43;;;;;;;3.88;2.50;;;;;;;26.11;52.34;100629.66;5112839;28;20130;-69
2023/09/15 10:47:16;;;;;;;3.83;2.63;;;;;;;26.13;52.06;100622.13;5112972;28;20139;-70
2023/09/15 10:49:53;;;;;;;3.63;2.67;;;;;;;26.17;52.23;100628.09;5112696;28;20105;-69
2023/09/15 10:52:33;;;;;;;3.75;2.63;;;;;;;26.20;52.13;100622.25;5113034;28;20051;-69
2023/09/15 10:55:04;;;;;;;4.00;2.40;;;;;;;26.24;52.06;100629.88;5112847;28;20405;-70
2023/09/15 10:57:35;;;;;;;3.53;2.35;;;;;;;26.24;52.14;100624.41;5112765;28;20043;-69
2023/09/15 11:00:06;;;;;;;3.38;2.38;;;;;;;26.25;52.27;100626.13;5112823;28;20083;-69
2023/09/15 11:02:36;;;;;;;3.85;2.55;;;;;;;26.27;52.01;100627.81;5112707;28;20048;-69
2023/09/15 11:05:07;;;;;;;4.07;2.70;;;;;;;26.29;51.63;100626.59;5112572;28;20051;-69
2023/09/15 11:07:37;;;;;;;4.72;2.50;;;;;;;26.34;51.53;100621.41;5112404;28;20043;-69
2023/09/15 11:10:07;;;;;;;3.83;2.70;;;;;;;26.39;51.49;100616.28;5112084;28;20044;-69
2023/09/15 11:12:35;;;;;;;3.75;2.47;;;;;;;26.43;51.55;100617.59;5112387;28;20052;-69
2023/09/15 11:15:04;;;;;;;3.40;2.45;;;;;;;26.47;51.63;100615.34;5112380;28;20043;-69
2023/09/15 11:17:33;;;;;;;3.92;2.50;;;;;;;26.49;51.55;100616.00;5112239;28;20453;-70
2023/09/15 11:20:05;;;;;;;3.90;2.53;;;;;;;26.50;51.77;100617.69;5112093;28;20105;-70
2023/09/15 11:22:39;;;;;;;3.88;2.60;;;;;;;26.50;51.32;100615.81;5112204;28;20047;-70
2023/09/15 11:25:09;;;;;;;3.22;2.10;;;;;;;26.52;51.69;100618.34;5112471;28;20128;-69
2023/09/15 11:27:47;;;;;;;3.05;2.17;;;;;;;26.53;51.37;100614.59;5112322;28;20079;-69
2023/09/15 11:30:16;;;;;;;3.47;2.20;;;;;;;26.54;51.45;100613.56;5111887;28;20048;-69
2023/09/15 11:32:45;;;;;;;3.70;2.40;;;;;;;26.55;51.73;100615.28;5112153;28;20047;-69
2023/09/15 11:35:13;;;;;;;3.05;2.28;;;;;;;26.57;51.39;100620.56;5112351;28;20130;-69